Time;durP1;ratioP1;P1;durP2;ratioP2;P2;SDS_P1;SDS_P2;PMS_P1;PMS_P2;Temp;Humidity;BMP_temperature;BMP_pressure;BME280_temperature;BME280_humidity;BME280_pressure;Samples;Min_cycle;Max_cycle;Signal;HPM_P1;HPM_P2
2023/03/28 00:01:50;;;;;;;9.10;2.72;;;4.70;99.90;;;;;;5083663;28;20040;-90
2023/03/28 00:04:37;;;;;;;5.43;1.52;;;4.70;99.90;;;;;;5092254;28;20088;-82
2023/03/28 00:07:23;;;;;;;14.27;1.90;;;4.70;99.50;;;;;;5092130;28;20102;-84
2023/03/28 00:10:09;;;;;;;16.38;3.22;;;4.60;99.00;;;;;;5074638;28;20058;-84
2023/03/28 00:12:55;;;;;;;11.50;1.40;;;4.60;99.00;;;;;;5076674;28;20074;-87
2023/03/28 00:15:42;;;;;;;8.63;2.17;;;4.60;99.40;;;;;;5076011;28;20062;-85
2023/03/28 00:18:29;;;;;;;10.98;2.30;;;4.50;99.60;;;;;;5097382;28;20465;-86
2023/03/28 00:21:22;;;;;;;8.20;1.52;;;4.50;99.60;;;;;;5092169;28;20075;-83
2023/03/28 00:24:13;;;;;;;11.60;2.05;;;4.50;99.90;;;;;;5092529;28;20480;-84
2023/03/28 00:27:00;;;;;;;8.55;2.13;;;4.50;99.90;;;;;;5079517;28;20068;-84
2023/03/28 00:29:46;;;;;;;12.00;1.75;;;4.50;99.90;;;;;;5092491;28;20039;-84
2023/03/28 00:32:33;;;;;;;11.75;2.05;;;4.60;99.90;;;;;;5075719;28;20047;-83
2023/03/28 00:35:19;;;;;;;9.80;2.30;;;4.50;99.90;;;;;;5097682;28;20048;-85
2023/03/28 00:38:05;;;;;;;15.10;1.75;;;4.50;99.90;;;;;;5091581;28;20052;-86
2023/03/28 00:40:54;;;;;;;9.07;1.70;;;4.50;99.90;;;;;;5074322;28;20142;-82
2023/03/28 00:43:49;;;;;;;16.65;1.98;;;4.50;99.90;;;;;;5093909;28;20499;-83
2023/03/28 00:46:41;;;;;;;16.27;3.97;;;4.50;99.90;;;;;;5091141;28;20114;-85
2023/03/28 00:49:27;;;;;;;9.60;1.70;;;4.50;99.90;;;;;;5092316;28;20549;-83
2023/03/28 00:52:16;;;;;;;14.68;3.75;;;4.50;99.90;;;;;;5094704;28;20044;-85
2023/03/28 00:55:04;;;;;;;15.45;2.35;;;4.50;99.90;;;;;;5098563;28;20092;-85
2023/03/28 00:57:51;;;;;;;18.10;2.10;;;4.40;99.90;;;;;;5092275;28;20059;-85
2023/03/28 01:00:45;;;;;;;16.33;1.83;;;4.40;99.90;;;;;;5093374;28;20040;-83
2023/03/28 01:03:34;;;;;;;12.20;1.58;;;4.40;99.90;;;;;;5092262;28;20079;-84
2023/03/28 01:06:21;;;;;;;9.63;1.75;;;4.40;99.90;;;;;;5093758;28;20146;-86
2023/03/28 01:09:08;;;;;;;15.52;2.33;;;4.40;99.90;;;;;;5100842;28;20044;-87
2023/03/28 01:11:57;;;;;;;16.27;2.67;;;4.40;99.90;;;;;;5092250;28;20048;-86
2023/03/28 01:14:45;;;;;;;13.18;1.95;;;4.40;99.90;;;;;;5091610;28;20135;-85
2023/03/28 01:17:31;;;;;;;16.80;2.50;;;4.40;99.90;;;;;;5076058;28;20056;-83
2023/03/28 01:20:34;;;;;;;18.00;1.92;;;4.40;99.90;;;;;;5075659;28;20080;-83
2023/03/28 01:23:39;;;;;;;14.60;1.95;;;4.40;99.90;;;;;;5095005;28;20530;-86
2023/03/28 01:26:39;;;;;;;13.82;1.90;;;4.30;99.90;;;;;;5062604;28;20048;-83
2023/03/28 01:29:49;;;;;;;11.70;1.60;;;4.20;99.90;;;;;;5076026;28;20155;-84
2023/03/28 01:32:47;;;;;;;13.23;2.80;;;4.20;99.90;;;;;;5091747;28;20114;-85
2023/03/28 01:35:35;;;;;;;12.18;2.17;;;4.20;99.90;;;;;;5092009;28;20048;-86
2023/03/28 01:38:35;;;;;;;12.80;2.70;;;4.20;99.90;;;;;;5100927;28;20107;-83
2023/03/28 01:41:25;;;;;;;14.15;1.60;;;4.20;99.90;;;;;;5079448;28;20404;-84
2023/03/28 01:44:17;;;;;;;11.57;1.67;;;4.20;99.90;;;;;;5091244;28;20048;-85
2023/03/28 01:47:21;;;;;;;7.97;3.13;;;4.20;99.90;;;;;;5076888;28;20048;-83
2023/03/28 01:50:23;;;;;;;11.65;2.03;;;4.30;99.90;;;;;;5091026;28;20078;-83
2023/03/28 01:53:10;;;;;;;11.27;1.35;;;4.30;99.90;;;;;;5096098;28;20051;-84
2023/03/28 01:56:02;;;;;;;11.35;1.52;;;4.20;99.90;;;;;;5091619;28;20091;-85
2023/03/28 01:58:58;;;;;;;10.63;2.38;;;4.20;99.90;;;;;;5090062;28;20511;-85
2023/03/28 02:02:01;;;;;;;15.52;2.42;;;4.20;99.90;;;;;;5077523;28;20055;-83
2023/03/28 02:04:48;;;;;;;15.85;2.60;;;4.20;99.90;;;;;;5091353;28;20139;-83
2023/03/28 02:07:37;;;;;;;13.35;1.83;;;4.20;99.90;;;;;;5073454;28;20135;-86
2023/03/28 02:10:26;;;;;;;7.65;1.60;;;4.20;99.90;;;;;;5079816;28;20048;-85
2023/03/28 02:13:20;;;;;;;13.15;1.77;;;4.20;99.90;;;;;;5091862;28;20165;-84
2023/03/28 02:16:08;;;;;;;13.05;1.80;;;4.20;99.90;;;;;;5090345;28;20055;-83
2023/03/28 02:18:57;;;;;;;12.77;1.75;;;4.10;99.90;;;;;;5072981;28;20059;-85
2023/03/28 02:21:50;;;;;;;8.18;1.52;;;4.10;99.90;;;;;;5091737;28;20052;-83
2023/03/28 02:24:36;;;;;;;15.20;1.63;;;4.10;99.90;;;;;;5058309;28;20047;-87
2023/03/28 02:27:22;;;;;;;10.60;2.08;;;4.10;99.90;;;;;;5078658;28;20059;-85
2023/03/28 02:30:09;;;;;;;9.40;3.08;;;4.10;99.90;;;;;;5076616;28;20058;-87
2023/03/28 02:33:00;;;;;;;10.55;1.65;;;4.00;99.90;;;;;;5074854;28;20089;-85
2023/03/28 02:35:59;;;;;;;10.68;1.40;;;4.10;99.90;;;;;;5089798;28;20404;-83
2023/03/28 02:39:20;;;;;;;14.98;2.28;;;4.00;99.90;;;;;;5090419;28;20082;-84
2023/03/28 02:42:14;;;;;;;10.43;2.33;;;4.10;99.90;;;;;;5044429;28;20136;-85
2023/03/28 02:45:26;;;;;;;9.80;2.55;;;4.00;99.90;;;;;;5075020;28;20040;-86
2023/03/28 02:48:41;;;;;;;15.07;2.95;;;4.00;99.90;;;;;;5090584;28;20522;-87
2023/03/28 02:51:34;;;;;;;7.88;1.45;;;4.00;99.90;;;;;;5089764;28;20070;-84
2023/03/28 02:54:33;;;;;;;10.75;1.63;;;4.10;99.90;;;;;;5089192;28;20099;-86
2023/03/28 02:57:30;;;;;;;7.05;1.48;;;4.10;99.90;;;;;;5089771;28;20056;-86
2023/03/28 03:00:18;;;;;;;10.40;1.38;;;4.00;99.90;;;;;;5077543;28;20625;-83
2023/03/28 03:03:09;;;;;;;9.50;1.55;;;4.00;99.90;;;;;;5092273;28;20512;-85
2023/03/28 03:05:56;;;;;;;9.65;1.70;;;4.00;99.90;;;;;;5090367;28;20104;-86
2023/03/28 03:08:43;;;;;;;9.10;1.67;;;3.90;99.90;;;;;;5090938;28;20044;-85
2023/03/28 03:11:30;;;;;;;11.88;1.42;;;3.90;99.90;;;;;;5088764;28;20534;-84
2023/03/28 03:14:16;;;;;;;10.30;2.03;;;3.90;99.90;;;;;;5088784;28;20040;-87
2023/03/28 03:17:04;;;;;;;13.23;2.90;;;3.90;99.90;;;;;;5076653;28;20091;-85
2023/03/28 03:19:50;;;;;;;11.85;1.85;;;3.90;99.90;;;;;;5090487;28;20132;-85
2023/03/28 03:22:36;;;;;;;12.75;2.10;;;3.90;99.90;;;;;;5089332;28;20084;-85
2023/03/28 03:25:22;;;;;;;16.83;2.72;;;3.80;99.90;;;;;;5088468;28;20044;-86
2023/03/28 03:28:09;;;;;;;8.80;1.38;;;3.80;99.90;;;;;;5088902;28;20059;-86
2023/03/28 03:30:55;;;;;;;7.75;1.27;;;3.90;99.90;;;;;;5088596;28;20054;-87
2023/03/28 03:33:41;;;;;;;9.90;2.45;;;3.90;99.90;;;;;;5083106;28;20133;-85
2023/03/28 03:36:29;;;;;;;6.60;1.40;;;3.90;99.90;;;;;;5089055;28;20549;-83
2023/03/28 03:39:15;;;;;;;10.35;1.52;;;3.90;99.90;;;;;;5090249;28;20412;-85
2023/03/28 03:42:02;;;;;;;8.15;1.48;;;3.80;99.90;;;;;;5088796;28;20048;-84
2023/03/28 03:44:49;;;;;;;14.35;1.27;;;3.80;99.90;;;;;;5072747;28;20044;-85
2023/03/28 03:47:35;;;;;;;5.25;1.20;;;3.80;99.90;;;;;;5098848;28;20052;-85
2023/03/28 03:50:21;;;;;;;7.60;1.63;;;3.80;99.90;;;;;;5090401;28;20076;-85
2023/03/28 03:53:07;;;;;;;9.65;1.50;;;3.80;99.90;;;;;;5089245;28;20044;-85
2023/03/28 03:55:58;;;;;;;9.82;1.38;;;3.90;99.90;;;;;;5089527;28;20128;-85
2023/03/28 03:58:44;;;;;;;8.80;2.22;;;3.90;99.90;;;;;;5070319;28;20159;-83
2023/03/28 04:01:31;;;;;;;11.55;1.27;;;3.90;99.90;;;;;;5098648;28;20048;-83
2023/03/28 04:04:17;;;;;;;9.90;1.55;;;3.90;99.90;;;;;;5077433;28;20051;-82
2023/03/28 04:07:03;;;;;;;15.15;1.83;;;3.90;99.90;;;;;;5074244;28;20049;-83
2023/03/28 04:09:49;;;;;;;15.43;2.13;;;3.90;99.90;;;;;;5089348;28;20085;-85
2023/03/28 04:12:35;;;;;;;11.05;1.42;;;3.80;99.90;;;;;;5073664;28;20059;-85
2023/03/28 04:15:21;;;;;;;9.18;2.13;;;3.80;99.90;;;;;;5088330;28;20468;-85
2023/03/28 04:18:07;;;;;;;11.65;1.38;;;3.80;99.90;;;;;;5075669;28;20052;-85
2023/03/28 04:20:56;;;;;;;33.85;3.72;;;3.80;99.90;;;;;;5093651;28;20036;-86
2023/03/28 04:23:42;;;;;;;15.68;1.55;;;3.80;99.90;;;;;;5094454;28;20043;-85
2023/03/28 04:26:34;;;;;;;14.13;1.40;;;3.70;99.90;;;;;;5088171;28;20048;-86
2023/03/28 04:29:30;;;;;;;7.82;1.25;;;3.70;99.90;;;;;;5088165;28;20051;-85
2023/03/28 04:32:17;;;;;;;14.00;1.60;;;3.70;99.90;;;;;;5083925;28;20062;-85
2023/03/28 04:35:04;;;;;;;13.60;1.65;;;3.70;99.90;;;;;;5090344;28;20044;-85
2023/03/28 04:37:50;;;;;;;7.38;1.35;;;3.70;99.90;;;;;;5091505;28;20109;-83
2023/03/28 04:40:38;;;;;;;12.82;1.60;;;3.70;99.90;;;;;;5091614;28;20555;-83
2023/03/28 04:43:28;;;;;;;13.20;1.50;;;3.80;99.90;;;;;;5093232;28;20193;-85
2023/03/28 04:46:14;;;;;;;9.15;1.52;;;3.90;99.90;;;;;;5102931;28;20054;-83
2023/03/28 04:49:00;;;;;;;13.52;1.80;;;3.90;99.90;;;;;;5093417;28;20040;-85
2023/03/28 04:51:46;;;;;;;17.05;1.60;;;3.90;99.90;;;;;;5077805;28;20043;-86
2023/03/28 04:54:32;;;;;;;9.27;1.90;;;3.80;99.90;;;;;;5077972;28;20052;-85
2023/03/28 04:57:18;;;;;;;13.95;1.73;;;3.60;99.90;;;;;;5091769;28;20492;-86
2023/03/28 05:00:09;;;;;;;11.57;2.15;;;3.40;99.90;;;;;;5073765;28;20040;-86
2023/03/28 05:02:56;;;;;;;11.07;2.10;;;3.30;99.90;;;;;;5098405;28;20072;-85
2023/03/28 05:05:43;;;;;;;9.75;1.50;;;3.20;99.90;;;;;;5083198;28;20052;-86
2023/03/28 05:08:30;;;;;;;12.65;2.20;;;3.10;99.90;;;;;;5077709;28;20085;-87
2023/03/28 05:11:16;;;;;;;8.02;1.85;;;3.10;99.90;;;;;;5091820;28;20055;-85
2023/03/28 05:14:02;;;;;;;9.98;1.63;;;3.10;99.90;;;;;;5073950;28;20412;-87
2023/03/28 05:16:48;;;;;;;8.00;1.83;;;3.20;99.90;;;;;;5076369;28;20400;-86
2023/03/28 05:19:34;;;;;;;10.38;1.95;;;3.20;99.90;;;;;;5089481;28;20054;-85
2023/03/28 05:22:20;;;;;;;9.38;1.77;;;3.30;99.90;;;;;;5093850;28;20078;-85
2023/03/28 05:25:07;;;;;;;13.18;2.20;;;3.30;99.90;;;;;;5094256;28;20059;-86
2023/03/28 05:27:53;;;;;;;9.95;1.50;;;3.30;99.90;;;;;;5093276;28;20055;-85
2023/03/28 05:30:39;;;;;;;13.13;2.42;;;3.30;99.90;;;;;;5091539;28;20138;-85
2023/03/28 05:33:25;;;;;;;9.55;1.90;;;3.30;99.90;;;;;;5073209;28;20135;-84
2023/03/28 05:36:11;;;;;;;12.55;2.08;;;3.20;99.90;;;;;;5096840;28;20056;-83
2023/03/28 05:38:57;;;;;;;8.25;2.38;;;3.20;99.90;;;;;;5092721;28;20047;-83
2023/03/28 05:41:43;;;;;;;9.68;2.13;;;3.20;99.90;;;;;;5091276;28;20722;-84
2023/03/28 05:44:29;;;;;;;8.30;1.83;;;3.20;99.90;;;;;;5078719;28;20419;-86
2023/03/28 05:47:16;;;;;;;15.40;1.65;;;3.20;99.90;;;;;;5092996;28;20048;-83
2023/03/28 05:50:03;;;;;;;19.25;3.00;;;3.20;99.90;;;;;;5075743;28;20040;-85
2023/03/28 05:52:49;;;;;;;10.68;3.25;;;3.10;99.90;;;;;;5096860;28;20048;-83
2023/03/28 05:55:36;;;;;;;13.75;2.03;;;3.10;99.90;;;;;;5091023;28;20044;-84
2023/03/28 05:58:22;;;;;;;11.57;1.95;;;3.10;99.90;;;;;;5072923;28;20044;-85
2023/03/28 06:01:11;;;;;;;6.00;1.45;;;3.10;99.90;;;;;;5062501;28;20818;-84
2023/03/28 06:03:58;;;;;;;6.20;2.20;;;3.20;99.90;;;;;;5080462;28;20493;-84
2023/03/28 06:06:44;;;;;;;8.48;2.50;;;3.20;99.90;;;;;;5095279;28;20055;-84
2023/03/28 06:09:31;;;;;;;6.70;1.33;;;3.30;99.90;;;;;;5097420;28;20048;-87
2023/03/28 06:12:17;;;;;;;7.32;2.50;;;3.40;99.90;;;;;;5088000;28;20043;-84
2023/03/28 06:15:04;;;;;;;14.55;2.20;;;3.50;99.90;;;;;;5087953;28;20154;-83
2023/03/28 06:17:50;;;;;;;14.98;1.92;;;3.60;99.90;;;;;;5087865;28;20051;-84
2023/03/28 06:20:36;;;;;;;5.47;1.42;;;3.70;99.90;;;;;;5090511;28;20048;-87
2023/03/28 06:23:23;;;;;;;16.88;3.28;;;3.90;99.90;;;;;;5098354;28;20051;-85
2023/03/28 06:26:10;;;;;;;16.17;2.88;;;4.10;99.90;;;;;;5093112;28;20055;-83
2023/03/28 06:28:56;;;;;;;11.50;2.70;;;4.20;99.90;;;;;;5093890;28;20048;-84
2023/03/28 06:31:42;;;;;;;7.53;1.33;;;4.30;99.90;;;;;;5089843;28;20052;-84
2023/03/28 06:34:28;;;;;;;10.48;2.75;;;4.40;99.90;;;;;;5089841;28;20044;-86
2023/03/28 06:37:14;;;;;;;12.18;1.75;;;4.40;99.90;;;;;;5092056;28;20408;-85
2023/03/28 06:40:02;;;;;;;14.18;1.83;;;4.40;99.90;;;;;;5097055;28;20048;-84
2023/03/28 06:42:48;;;;;;;13.35;1.60;;;4.30;99.90;;;;;;5092404;28;20052;-87
2023/03/28 06:45:34;;;;;;;12.02;1.73;;;4.30;99.90;;;;;;5074028;28;20055;-86
2023/03/28 06:48:20;;;;;;;11.07;1.90;;;4.30;99.90;;;;;;5088605;28;20044;-84
2023/03/28 06:51:06;;;;;;;9.95;2.72;;;4.20;99.90;;;;;;5089715;28;20131;-88
2023/03/28 06:53:52;;;;;;;12.57;3.92;;;4.30;99.90;;;;;;5090255;28;20454;-84
2023/03/28 06:56:38;;;;;;;11.13;2.58;;;4.50;99.90;;;;;;5091836;28;20040;-86
2023/03/28 06:59:24;;;;;;;8.05;1.58;;;4.70;99.90;;;;;;5090779;28;20051;-85
2023/03/28 07:02:11;;;;;;;6.70;1.17;;;4.80;99.90;;;;;;5089282;28;20570;-87
2023/03/28 07:04:57;;;;;;;6.75;1.70;;;4.80;99.90;;;;;;5075751;28;20047;-86
2023/03/28 07:07:43;;;;;;;11.32;1.88;;;4.80;99.90;;;;;;5075489;28;20062;-84
2023/03/28 07:10:29;;;;;;;10.05;1.90;;;4.90;99.90;;;;;;5094210;28;20060;-85
2023/03/28 07:13:16;;;;;;;10.55;1.85;;;4.90;99.90;;;;;;5080006;28;20047;-85
2023/03/28 07:16:04;;;;;;;9.57;1.42;;;5.00;99.90;;;;;;5089893;28;20094;-84
2023/03/28 07:18:50;;;;;;;6.82;1.30;;;5.00;99.90;;;;;;5090078;28;20052;-86
2023/03/28 07:21:36;;;;;;;4.35;1.20;;;5.10;99.90;;;;;;5090486;28;20059;-85
2023/03/28 07:24:22;;;;;;;5.70;1.00;;;5.10;99.90;;;;;;5072072;28;20180;-84
2023/03/28 07:27:08;;;;;;;7.60;1.30;;;5.20;99.90;;;;;;5095338;28;20044;-85
2023/03/28 07:29:55;;;;;;;6.97;1.40;;;5.40;99.90;;;;;;5091859;28;20048;-86
2023/03/28 07:32:41;;;;;;;8.73;1.02;;;5.50;99.90;;;;;;5062970;28;20121;-85
2023/03/28 07:35:27;;;;;;;6.15;1.60;;;5.60;99.90;;;;;;5095245;28;20066;-83
2023/03/28 07:38:13;;;;;;;6.53;1.75;;;5.70;99.90;;;;;;5090342;28;20085;-85
2023/03/28 07:41:00;;;;;;;5.25;1.55;;;5.70;99.90;;;;;;5091839;28;20055;-90
2023/03/28 07:43:46;;;;;;;8.77;1.20;;;5.80;99.90;;;;;;5091476;28;20048;-84
2023/03/28 07:46:36;;;;;;;7.35;1.42;;;5.90;99.90;;;;;;5090674;28;20055;-82
2023/03/28 07:49:22;;;;;;;5.28;1.20;;;5.90;99.90;;;;;;5078687;28;20051;-84
2023/03/28 07:52:08;;;;;;;7.25;1.15;;;5.90;99.90;;;;;;5092863;28;20140;-85
2023/03/28 07:54:55;;;;;;;8.05;1.05;;;5.90;99.90;;;;;;5092165;28;20846;-85
2023/03/28 07:57:43;;;;;;;4.55;1.10;;;6.10;99.90;;;;;;5097922;28;20086;-87
2023/03/28 08:00:29;;;;;;;9.18;1.77;;;6.10;99.90;;;;;;5089082;28;20079;-84
2023/03/28 08:03:16;;;;;;;5.95;1.10;;;6.20;99.90;;;;;;5089432;28;20051;-84
2023/03/28 08:06:04;;;;;;;12.07;1.95;;;6.40;99.90;;;;;;5092953;28;20084;-86
2023/03/28 08:08:51;;;;;;;5.68;1.00;;;6.70;99.90;;;;;;5089192;28;20590;-84
2023/03/28 08:11:39;;;;;;;6.25;1.20;;;7.10;99.90;;;;;;5073340;28;20048;-85
2023/03/28 08:14:25;;;;;;;3.88;0.70;;;7.20;99.90;;;;;;5103156;28;20044;-87
2023/03/28 08:17:11;;;;;;;4.15;0.70;;;7.40;99.90;;;;;;5096867;28;20044;-88
2023/03/28 08:19:57;;;;;;;3.20;0.68;;;7.40;98.50;;;;;;5096851;28;20130;-87
2023/03/28 08:22:44;;;;;;;3.35;0.68;;;7.50;97.20;;;;;;5095235;28;20136;-87
2023/03/28 08:25:30;;;;;;;4.68;0.75;;;7.50;96.80;;;;;;5092853;28;20514;-90
2023/03/28 08:28:16;;;;;;;5.35;0.88;;;7.40;96.40;;;;;;5092684;28;20120;-88
2023/03/28 08:31:12;;;;;;;8.52;2.10;;;7.20;96.70;;;;;;5085425;28;20113;-84
2023/03/28 08:33:58;;;;;;;2.92;1.27;;;7.10;96.30;;;;;;5075939;28;20055;-84
2023/03/28 08:36:45;;;;;;;3.97;0.60;;;7.00;96.20;;;;;;5103537;28;20051;-86
2023/03/28 08:39:33;;;;;;;5.65;0.80;;;7.00;96.00;;;;;;5093463;28;20067;-90
2023/03/28 08:42:35;;;;;;;5.82;0.80;;;7.10;96.30;;;;;;5080658;28;20107;-90
2023/03/28 08:45:44;;;;;;;3.22;0.80;;;7.10;95.90;;;;;;5096793;28;20168;-90
2023/03/28 08:48:32;;;;;;;4.47;1.13;;;7.00;96.40;;;;;;5092838;28;20407;-91
2023/03/28 08:51:27;;;;;;;6.00;0.98;;;6.90;97.30;;;;;;5093108;28;20052;-91
2023/03/28 08:54:16;;;;;;;3.08;1.00;;;6.80;97.00;;;;;;5083153;28;20127;-90
2023/03/28 08:57:05;;;;;;;5.80;0.90;;;6.70;97.20;;;;;;5079726;28;20074;-88
2023/03/28 09:00:13;;;;;;;3.70;0.88;;;6.70;96.90;;;;;;5073204;28;20051;-87
2023/03/28 09:03:00;;;;;;;3.78;0.95;;;6.60;97.20;;;;;;5102554;28;20076;-89
2023/03/28 09:05:48;;;;;;;4.28;0.70;;;6.60;97.60;;;;;;5073852;28;20374;-87
2023/03/28 09:08:38;;;;;;;8.63;1.63;;;6.50;97.80;;;;;;5084305;28;20044;-86
2023/03/28 09:11:42;;;;;;;3.53;0.80;;;6.60;97.60;;;;;;5093508;28;20048;-86
2023/03/28 09:14:36;;;;;;;3.50;0.60;;;6.70;96.80;;;;;;5091754;28;20442;-89
2023/03/28 09:17:30;;;;;;;5.97;1.90;;;7.00;96.80;;;;;;5099066;28;20048;-88
2023/03/28 09:20:22;;;;;;;6.82;1.13;;;7.40;96.50;;;;;;5092225;28;20294;-88
2023/03/28 09:23:40;;;;;;;5.32;1.02;;;7.70;96.50;;;;;;5092492;28;20052;-88
2023/03/28 09:26:39;;;;;;;7.72;1.30;;;7.70;96.00;;;;;;5096255;28;20047;-87
2023/03/28 09:29:27;;;;;;;5.82;0.70;;;7.90;95.90;;;;;;5098038;28;20056;-87
2023/03/28 09:32:31;;;;;;;4.75;0.80;;;8.00;96.00;;;;;;5078816;28;20190;-88
2023/03/28 09:35:20;;;;;;;4.13;0.75;;;7.90;95.50;;;;;;5088308;28;20404;-85
2023/03/28 09:38:42;;;;;;;5.88;1.00;;;8.00;96.50;;;;;;5075390;28;20056;-89
2023/03/28 09:41:51;;;;;;;5.57;0.90;;;8.10;95.60;;;;;;5095872;28;20044;-83
2023/03/28 09:44:43;;;;;;;4.55;1.02;;;8.10;95.00;;;;;;5099818;28;20040;-90
2023/03/28 09:47:32;;;;;;;4.38;0.95;;;8.20;94.70;;;;;;5078431;28;20055;-87
2023/03/28 09:50:19;;;;;;;3.22;0.80;;;8.20;94.50;;;;;;5092224;28;20489;-85
2023/03/28 09:53:05;;;;;;;6.25;1.58;;;8.40;94.80;;;;;;5074544;28;20614;-90
2023/03/28 09:56:01;;;;;;;6.78;0.90;;;8.30;94.20;;;;;;5075052;28;20067;-86
2023/03/28 09:58:51;;;;;;;;;;;8.20;93.90;;;;;;5104161;28;20046;-85
2023/03/28 10:01:42;;;;;;;3.88;0.68;;;8.20;94.00;;;;;;5074637;28;19919;-88
2023/03/28 10:04:28;;;;;;;4.10;0.88;;;8.20;94.00;;;;;;5098903;28;20114;-87
2023/03/28 10:07:32;;;;;;;3.97;0.70;;;8.20;94.40;;;;;;5093990;28;20524;-87
2023/03/28 10:10:20;;;;;;;4.78;1.00;;;8.20;93.60;;;;;;5093812;28;20040;-89
2023/03/28 10:13:10;;;;;;;7.15;1.33;;;8.40;93.80;;;;;;5092303;28;20108;-89
2023/03/28 10:15:57;;;;;;;4.05;1.00;;;8.60;93.20;;;;;;5096149;28;20415;-87
2023/03/28 10:18:43;;;;;;;8.02;1.17;;;8.70;93.00;;;;;;5094854;28;20047;-88
2023/03/28 10:21:31;;;;;;;5.00;1.48;;;8.70;93.10;;;;;;5095037;28;20052;-86
2023/03/28 10:24:20;;;;;;;5.85;1.55;;;8.70;93.60;;;;;;5098015;28;20079;-86
2023/03/28 10:27:17;;;;;;;5.35;1.40;;;8.70;93.00;;;;;;5083190;28;20052;-85
2023/03/28 10:30:24;;;;;;;3.97;1.00;;;8.80;93.00;;;;;;5079540;28;20124;-86
2023/03/28 10:33:16;;;;;;;3.33;1.40;;;8.90;93.10;;;;;;5095922;28;20048;-88
2023/03/28 10:36:06;;;;;;;6.47;1.35;;;8.90;93.50;;;;;;5094835;28;20086;-85
2023/03/28 10:38:52;;;;;;;4.15;1.17;;;8.90;93.10;;;;;;5077042;28;20048;-85
2023/03/28 10:42:00;;;;;;;5.47;1.20;;;8.80;93.10;;;;;;5092553;28;20044;-86
2023/03/28 10:44:58;;;;;;;8.05;1.40;;;8.70;92.60;;;;;;5092991;28;20044;-87
2023/03/28 10:47:45;;;;;;;5.95;1.40;;;8.80;93.10;;;;;;5094363;28;20084;-85
2023/03/28 10:50:50;;;;;;;6.35;1.38;;;9.00;93.90;;;;;;5094675;28;20058;-87
2023/03/28 10:54:06;;;;;;;6.63;1.83;;;9.20;93.70;;;;;;5098612;28;20048;-85
2023/03/28 10:57:14;;;;;;;7.53;1.40;;;9.10;93.00;;;;;;5078125;28;20040;-87
2023/03/28 11:00:13;;;;;;;6.00;1.58;;;9.10;93.60;;;;;;5090847;28;20083;-84
2023/03/28 11:03:17;;;;;;;4.70;1.33;;;9.00;94.20;;;;;;5092318;28;20043;-85
2023/03/28 11:06:03;;;;;;;3.83;1.30;;;8.90;93.00;;;;;;5097714;28;20055;-89
2023/03/28 11:09:01;;;;;;;5.90;2.00;;;9.00;93.80;;;;;;5096319;28;20044;-85
2023/03/28 11:12:09;;;;;;;6.10;1.50;;;9.20;94.30;;;;;;5076569;28;20124;-86
2023/03/28 11:15:30;;;;;;;6.78;1.83;;;9.30;94.00;;;;;;5090453;28;20499;-86
2023/03/28 11:18:24;;;;;;;10.20;1.90;;;9.30;93.60;;;;;;5092649;28;20052;-86
2023/03/28 11:21:31;;;;;;;5.75;1.73;;;9.20;93.60;;;;;;5098748;28;20055;-85
2023/03/28 11:24:44;;;;;;;4.55;1.50;;;9.50;93.40;;;;;;5090045;28;20047;-84
2023/03/28 11:27:57;;;;;;;5.35;1.83;;;9.90;93.00;;;;;;5072190;28;20083;-85
2023/03/28 11:30:47;;;;;;;6.70;1.75;;;9.90;90.50;;;;;;5089512;28;20100;-87
2023/03/28 11:33:57;;;;;;;4.53;1.15;;;10.10;91.60;;;;;;5090624;28;20044;-90
2023/03/28 11:37:03;;;;;;;7.93;1.95;;;9.80;91.00;;;;;;5095927;28;20113;-87
2023/03/28 11:39:58;;;;;;;13.48;2.33;;;9.90;91.70;;;;;;5088436;28;20052;-87
2023/03/28 11:42:54;;;;;;;13.35;2.13;;;10.10;92.80;;;;;;5088365;28;20071;-86
2023/03/28 11:45:50;;;;;;;6.60;1.85;;;10.00;93.00;;;;;;5090454;28;20055;-89
2023/03/28 11:49:14;;;;;;;16.63;2.53;;;9.80;93.40;;;;;;5093418;28;20117;-88
2023/03/28 11:52:10;;;;;;;8.32;2.42;;;9.70;94.00;;;;;;5102824;28;20400;-84
2023/03/28 11:55:17;;;;;;;6.30;1.75;;;9.70;93.90;;;;;;5093545;28;20051;-85
2023/03/28 11:58:22;;;;;;;8.88;3.17;;;9.70;93.70;;;;;;5074628;28;20150;-87
2023/03/28 12:01:24;;;;;;;7.97;2.17;;;9.60;93.90;;;;;;5095220;28;20134;-85
2023/03/28 12:04:16;;;;;;;9.85;2.03;;;9.60;94.70;;;;;;5077516;28;20416;-84
2023/03/28 12:07:20;;;;;;;9.75;2.42;;;9.80;95.10;;;;;;5097416;28;20055;-86
2023/03/28 12:10:19;;;;;;;8.98;2.33;;;9.70;94.10;;;;;;5092635;28;20059;-87
2023/03/28 12:13:17;;;;;;;8.27;1.92;;;9.90;93.90;;;;;;5082099;28;20044;-87
2023/03/28 12:16:12;;;;;;;7.70;2.33;;;10.10;93.10;;;;;;5092240;28;20048;-87
2023/03/28 12:19:01;;;;;;;7.70;2.28;;;10.60;92.90;;;;;;5098686;28;20059;-84
2023/03/28 12:21:58;;;;;;;10.45;2.50;;;10.70;92.70;;;;;;5091611;28;20051;-84
2023/03/28 12:24:48;;;;;;;6.40;2.20;;;11.50;91.90;;;;;;5073992;28;20051;-86
2023/03/28 12:27:39;;;;;;;10.30;2.50;;;11.70;90.70;;;;;;5095079;28;20388;-86
2023/03/28 12:30:31;;;;;;;11.10;3.13;;;12.70;90.90;;;;;;5094549;28;20048;-83
2023/03/28 12:34:02;;;;;;;11.52;4.28;;;13.30;89.00;;;;;;5102105;28;20051;-83
2023/03/28 12:36:52;;;;;;;7.88;2.42;;;13.40;85.90;;;;;;5093066;28;20101;-82
2023/03/28 12:39:57;;;;;;;5.78;2.38;;;13.00;86.00;;;;;;5091930;28;20094;-83
2023/03/28 12:42:45;;;;;;;7.95;2.72;;;12.80;84.20;;;;;;5093253;28;20053;-82
2023/03/28 12:45:37;;;;;;;10.02;2.45;;;12.90;84.80;;;;;;5091713;28;20039;-84
2023/03/28 12:48:41;;;;;;;14.10;3.17;;;13.00;81.00;;;;;;5099582;28;20091;-83
2023/03/28 12:51:35;;;;;;;9.20;2.67;;;13.00;79.10;;;;;;5091817;28;20040;-82
2023/03/28 12:54:28;;;;;;;10.20;4.25;;;12.90;80.20;;;;;;5092701;28;20055;-81
2023/03/28 12:57:42;;;;;;;12.15;3.95;;;13.00;79.60;;;;;;5091336;28;20109;-82
2023/03/28 13:00:40;;;;;;;13.40;3.22;;;12.70;80.80;;;;;;5092301;28;20055;-83
2023/03/28 13:04:22;;;;;;;10.40;2.78;;;12.30;80.50;;;;;;5073225;28;20051;-83
2023/03/28 13:07:53;;;;;;;7.82;2.45;;;11.80;80.90;;;;;;5057151;28;20142;-84
2023/03/28 13:11:27;;;;;;;7.30;2.78;;;11.80;81.40;;;;;;5055335;28;20056;-82
2023/03/28 13:14:36;;;;;;;12.13;2.85;;;11.50;82.00;;;;;;5093047;28;20048;-83
2023/03/28 13:17:28;;;;;;;5.35;2.00;;;11.40;83.40;;;;;;5090915;28;20048;-86
2023/03/28 13:20:14;;;;;;;8.77;2.40;;;11.30;84.50;;;;;;5090749;28;20048;-81
2023/03/28 13:23:06;;;;;;;6.53;3.35;;;11.10;84.60;;;;;;5090976;28;20071;-85
2023/03/28 13:25:54;;;;;;;6.57;2.67;;;10.90;83.20;;;;;;5079316;28;20050;-84
2023/03/28 13:28:46;;;;;;;7.22;3.08;;;10.90;85.90;;;;;;5097425;28;20447;-82
2023/03/28 13:31:32;;;;;;;8.77;3.15;;;11.00;87.10;;;;;;5075678;28;20416;-82
2023/03/28 13:34:24;;;;;;;9.05;2.70;;;11.10;86.40;;;;;;5090493;28;20052;-84
2023/03/28 13:37:22;;;;;;;9.05;2.85;;;11.30;85.20;;;;;;5091864;28;20393;-83
2023/03/28 13:40:54;;;;;;;5.97;2.70;;;11.60;85.50;;;;;;5075706;28;20044;-82
2023/03/28 13:43:45;;;;;;;8.48;3.00;;;11.50;85.80;;;;;;5078957;28;20059;-83
2023/03/28 13:46:47;;;;;;;6.05;2.67;;;11.60;84.80;;;;;;5078686;28;20048;-84
2023/03/28 13:50:00;;;;;;;6.72;2.38;;;11.80;83.40;;;;;;5091678;28;20114;-83
2023/03/28 13:52:46;;;;;;;5.65;2.38;;;12.00;82.10;;;;;;5057667;28;20139;-83
2023/03/28 13:55:32;;;;;;;8.98;3.13;;;12.50;81.10;;;;;;5076667;28;20047;-83
2023/03/28 13:58:18;;;;;;;10.38;3.58;;;12.80;77.70;;;;;;5091491;28;20133;-85
2023/03/28 14:01:15;;;;;;;10.85;3.55;;;12.30;77.40;;;;;;5080099;28;20077;-83
2023/03/28 14:04:01;;;;;;;6.20;3.38;;;11.50;78.10;;;;;;5090504;28;20056;-83
2023/03/28 14:06:49;;;;;;;7.97;3.50;;;11.20;80.10;;;;;;5072012;28;20052;-85
2023/03/28 14:09:35;;;;;;;6.65;2.88;;;10.70;80.90;;;;;;5088988;28;20048;-83
2023/03/28 14:12:26;;;;;;;7.95;3.03;;;10.30;80.40;;;;;;5098425;28;20111;-85
2023/03/28 14:15:21;;;;;;;10.25;3.22;;;10.10;83.40;;;;;;5095863;28;20041;-84
2023/03/28 14:18:21;;;;;;;;;;;9.90;84.80;;;;;;5076621;28;20048;-81
2023/03/28 14:21:08;;;;;;;8.48;2.83;;;9.80;86.70;;;;;;5090489;28;19987;-80
2023/03/28 14:23:58;;;;;;;6.25;2.53;;;9.70;88.30;;;;;;5090960;28;20044;-81
2023/03/28 14:26:45;;;;;;;7.53;2.85;;;9.60;90.00;;;;;;5095573;28;20174;-82
2023/03/28 14:29:31;;;;;;;9.23;2.47;;;9.50;88.00;;;;;;5092246;28;20801;-82
2023/03/28 14:32:30;;;;;;;11.80;2.70;;;9.50;88.10;;;;;;5091629;28;20503;-81
2023/03/28 14:35:21;;;;;;;13.00;3.78;;;9.50;88.70;;;;;;5089142;28;20047;-85
2023/03/28 14:38:12;;;;;;;13.10;3.28;;;9.60;90.20;;;;;;5091605;28;20450;-83
2023/03/28 14:41:26;;;;;;;12.55;3.20;;;9.40;90.00;;;;;;5090020;28;20040;-83
2023/03/28 14:44:12;;;;;;;12.02;2.85;;;9.30;90.40;;;;;;5075172;28;20044;-83
2023/03/28 14:46:59;;;;;;;5.43;2.78;;;9.30;90.80;;;;;;5072178;28;20408;-85
2023/03/28 14:49:45;;;;;;;7.85;2.70;;;9.10;90.50;;;;;;5090244;28;20507;-84
2023/03/28 14:52:39;;;;;;;5.80;3.00;;;9.00;90.80;;;;;;5071935;28;20051;-83
2023/03/28 14:55:26;;;;;;;12.60;3.60;;;9.00;91.30;;;;;;5092012;28;20036;-84
2023/03/28 14:58:13;;;;;;;10.82;3.70;;;9.00;91.60;;;;;;5091866;28;20058;-82
2023/03/28 15:01:00;;;;;;;9.80;3.92;;;9.00;91.50;;;;;;5089508;28;20259;-86
2023/03/28 15:03:52;;;;;;;6.78;3.55;;;9.10;91.80;;;;;;5089401;28;20056;-84